Time;durP1;ratioP1;P1;durP2;ratioP2;P2;SDS_P1;SDS_P2;PMS_P1;PMS_P2;Temp;Humidity;BMP_temperature;BMP_pressure;BME280_temperature;BME280_humidity;BME280_pressure;Samples;Min_cycle;Max_cycle;Signal;HPM_P1;HPM_P2
2021/01/20 00:01:29;;;;;;;136.80;53.23;;;;;;;-14.69;50.64;101380.98;1835747;77;21327;-61
2021/01/20 00:04:35;;;;;;;109.67;44.58;;;;;;;-14.69;50.82;101380.09;1850302;77;21358;-62
2021/01/20 00:07:40;;;;;;;88.10;37.45;;;;;;;-14.73;50.64;101390.16;1850383;77;21400;-61
2021/01/20 00:10:46;;;;;;;88.78;36.08;;;;;;;-14.82;50.63;101389.69;1850329;77;21354;-62
2021/01/20 00:13:52;;;;;;;84.97;35.03;;;;;;;-14.83;50.79;101385.73;1850208;77;21212;-62
2021/01/20 00:16:58;;;;;;;91.92;36.73;;;;;;;-14.78;50.83;101389.27;1850283;77;21184;-62
2021/01/20 00:20:04;;;;;;;90.25;38.05;;;;;;;-14.73;50.81;101384.91;1850254;77;21354;-61
2021/01/20 00:23:09;;;;;;;96.37;40.03;;;;;;;-14.75;50.48;101385.33;1850309;77;21315;-62
2021/01/20 00:26:16;;;;;;;95.15;36.25;;;;;;;-14.85;50.42;101376.55;1850224;77;21271;-62
2021/01/20 00:29:22;;;;;;;86.12;35.13;;;;;;;-14.87;50.58;101375.66;1850163;77;21184;-61
2021/01/20 00:32:27;;;;;;;97.67;39.18;;;;;;;-14.88;50.62;101371.29;1850174;77;21220;-61
2021/01/20 00:35:33;;;;;;;97.75;39.23;;;;;;;-14.86;50.55;101370.86;1850108;77;21413;-61
2021/01/20 00:38:38;;;;;;;102.12;37.95;;;;;;;-14.86;50.24;101376.12;1850162;77;21338;-61
2021/01/20 00:41:43;;;;;;;106.70;41.77;;;;;;;-14.94;50.07;101383.52;1846866;77;21470;-63
2021/01/20 00:44:49;;;;;;;111.37;41.65;;;;;;;-14.95;50.33;101381.77;1847970;77;21327;-62
2021/01/20 00:47:54;;;;;;;120.80;44.23;;;;;;;-14.94;50.42;101374.33;1847981;77;21356;-61
2021/01/20 00:51:02;;;;;;;115.12;43.65;;;;;;;-14.92;50.32;101374.75;1847839;77;21207;-61
2021/01/20 00:54:08;;;;;;;120.67;46.18;;;;;;;-14.91;50.24;101371.28;1847837;77;21176;-61
2021/01/20 00:57:15;;;;;;;98.70;40.15;;;;;;;-14.91;50.17;101369.97;1847803;77;21377;-61
2021/01/20 01:00:21;;;;;;;116.42;43.08;;;;;;;-14.91;50.13;101379.16;1847796;77;21351;-61
2021/01/20 01:03:29;;;;;;;115.80;44.63;;;;;;;-14.95;50.03;101376.06;1847793;77;21358;-61
2021/01/20 01:06:34;;;;;;;119.65;44.73;;;;;;;-14.95;50.01;101370.81;1847880;77;21870;-61
2021/01/20 01:09:40;;;;;;;139.12;56.15;;;;;;;-14.94;50.08;101375.21;1847963;77;21342;-61
2021/01/20 01:12:47;;;;;;;130.45;49.48;;;;;;;-14.99;49.97;101373.42;1821430;77;21726;-61
2021/01/20 01:15:52;;;;;;;106.27;41.80;;;;;;;-15.07;50.12;101382.59;1847864;77;21251;-61
2021/01/20 01:18:58;;;;;;;117.62;44.53;;;;;;;-15.12;50.35;101380.80;1847927;77;21224;-62
2021/01/20 01:22:03;;;;;;;107.63;41.30;;;;;;;-15.11;50.58;101382.16;1848058;77;21342;-63
2021/01/20 01:25:10;;;;;;;112.37;43.13;;;;;;;-15.08;50.56;101391.35;1848043;77;21197;-62
2021/01/20 01:28:21;;;;;;;113.47;43.95;;;;;;;-15.17;50.28;101393.06;1847862;77;21331;-61
2021/01/20 01:31:38;;;;;;;101.10;40.05;;;;;;;-15.20;50.46;101395.21;1817431;77;21338;-61
2021/01/20 01:34:45;;;;;;;82.72;36.48;;;;;;;-15.17;50.23;101396.99;1847950;77;21347;-61
2021/01/20 01:37:50;;;;;;;104.55;40.23;;;;;;;-15.29;50.00;101399.11;1847933;77;21342;-61
2021/01/20 01:41:01;;;;;;;86.32;36.50;;;;;;;-15.39;50.06;101398.64;1847849;77;21685;-61
2021/01/20 01:44:12;;;;;;;93.10;36.70;;;;;;;-15.38;50.10;101396.48;1842486;77;21322;-61
2021/01/20 01:47:19;;;;;;;77.15;32.60;;;;;;;-15.41;49.92;101397.78;1848013;77;21358;-61
2021/01/20 01:50:27;;;;;;;96.05;36.98;;;;;;;-15.47;50.02;101405.59;1847955;77;21342;-61
2021/01/20 01:53:32;;;;;;;87.67;34.90;;;;;;;-15.40;50.31;101410.44;1848089;77;21737;-61
2021/01/20 01:56:39;;;;;;;101.82;38.63;;;;;;;-15.38;50.25;101408.29;1847993;77;21729;-62
2021/01/20 01:59:46;;;;;;;87.35;34.53;;;;;;;-15.33;50.43;101409.59;1847998;77;21347;-61
2021/01/20 02:02:56;;;;;;;102.92;39.08;;;;;;;-15.35;50.06;101408.27;1839221;77;21338;-61
2021/01/20 02:06:05;;;;;;;93.72;36.53;;;;;;;-15.37;50.20;101417.88;1848163;77;21256;-61
2021/01/20 02:09:14;;;;;;;96.12;37.20;;;;;;;-15.30;50.31;101410.48;1847962;77;21193;-61
2021/01/20 02:12:34;;;;;;;89.77;34.20;;;;;;;-15.23;50.24;101421.87;1808264;77;21980;-61
2021/01/20 02:16:14;;;;;;;75.47;32.90;;;;;;;-15.21;50.00;101415.78;1808713;79;21351;-61
2021/01/20 02:19:22;;;;;;;73.97;32.17;;;;;;;-15.28;49.66;101411.81;1808810;79;21268;-61
2021/01/20 02:22:49;;;;;;;119.95;46.50;;;;;;;-15.30;49.58;101421.41;1808785;79;21374;-61
2021/01/20 02:26:31;;;;;;;98.97;38.13;;;;;;;-15.38;49.36;101425.77;1762477;81;21201;-62
2021/01/20 02:30:06;;;;;;;86.25;37.55;;;;;;;-15.58;49.33;101434.81;1751431;82;21283;-61
2021/01/20 02:33:22;;;;;;;110.42;41.92;;;;;;;-15.59;49.56;101438.31;1745726;82;21307;-62
2021/01/20 02:36:30;;;;;;;111.12;41.37;;;;;;;-15.48;49.72;101445.82;1751296;82;21212;-62
2021/01/20 02:39:39;;;;;;;88.00;38.63;;;;;;;-15.42;49.68;101440.61;1699394;82;21236;-61
2021/01/20 02:42:50;;;;;;;96.17;39.55;;;;;;;-15.40;49.57;101438.88;1751696;82;21235;-61
2021/01/20 02:45:59;;;;;;;84.30;36.98;;;;;;;-15.40;49.37;101442.81;1721832;83;21220;-63
2021/01/20 02:49:06;;;;;;;93.40;36.95;;;;;;;-15.47;49.31;101441.46;1724534;82;21381;-61
2021/01/20 02:52:40;;;;;;;77.42;32.88;;;;;;;-15.59;49.22;101439.63;1724464;83;21346;-62
2021/01/20 02:56:07;;;;;;;85.55;32.98;;;;;;;-15.68;49.42;101436.05;1721698;83;21248;-63
2021/01/20 02:59:22;;;;;;;90.65;32.88;;;;;;;-15.64;49.91;101438.70;1718910;82;21930;-60
2021/01/20 03:02:31;;;;;;;88.95;36.08;;;;;;;-15.54;50.25;101445.78;1703808;83;21706;-61
2021/01/20 03:05:41;;;;;;;96.28;37.28;;;;;;;-15.44;50.21;101437.09;1721198;82;21389;-62
2021/01/20 03:08:47;;;;;;;162.60;51.13;;;;;;;-15.37;50.16;101432.30;1721526;82;21859;-62
2021/01/20 03:11:55;;;;;;;199.30;60.45;;;;;;;-15.35;50.02;101435.82;1722039;83;21410;-62
2021/01/20 03:15:02;;;;;;;111.37;38.80;;;;;;;-15.45;49.47;101427.47;1720837;82;21280;-62
2021/01/20 03:18:07;;;;;;;93.42;34.85;;;;;;;-15.53;49.65;101433.10;1721314;83;21392;-62
2021/01/20 03:21:14;;;;;;;83.70;33.15;;;;;;;-15.51;49.70;101434.42;1721598;83;21209;-62
2021/01/20 03:24:19;;;;;;;115.15;42.50;;;;;;;-15.55;49.54;101443.16;1721730;82;21290;-62
2021/01/20 03:27:24;;;;;;;114.67;45.23;;;;;;;-15.56;49.46;101432.20;1721602;83;21232;-62
2021/01/20 03:30:33;;;;;;;108.87;43.15;;;;;;;-15.59;49.45;101434.38;1721540;82;21453;-62
2021/01/20 03:33:38;;;;;;;100.00;39.25;;;;;;;-15.64;49.30;101437.39;1721856;83;21756;-60
2021/01/20 03:36:44;;;;;;;90.72;39.63;;;;;;;-15.78;49.13;101441.66;1721557;83;21366;-61
2021/01/20 03:39:50;;;;;;;102.25;39.13;;;;;;;-15.95;49.05;101450.68;1721860;82;21252;-60
2021/01/20 03:42:55;;;;;;;124.18;43.30;;;;;;;-16.01;49.32;101456.30;1721801;83;21382;-61
2021/01/20 03:46:00;;;;;;;117.65;41.48;;;;;;;-15.98;49.54;101449.81;1729120;79;21293;-61
2021/01/20 03:49:05;;;;;;;96.02;37.00;;;;;;;-16.07;49.50;101454.94;1730805;82;21378;-61
2021/01/20 03:52:14;;;;;;;108.55;39.63;;;;;;;-16.13;49.66;101453.58;1730734;82;21214;-60
2021/01/20 03:55:19;;;;;;;106.22;40.12;;;;;;;-16.02;49.96;101458.48;1730666;83;21366;-59
2021/01/20 03:58:25;;;;;;;115.65;39.27;;;;;;;-15.92;49.91;101452.02;1730735;82;21451;-61
2021/01/20 04:01:30;;;;;;;101.70;36.58;;;;;;;-15.84;49.86;101458.20;1730780;82;21793;-61
2021/01/20 04:04:36;;;;;;;100.70;37.17;;;;;;;-15.81;49.91;101462.62;1730946;82;21872;-61
2021/01/20 04:07:43;;;;;;;106.30;38.02;;;;;;;-15.77;49.79;101457.41;1730582;82;21360;-60
2021/01/20 04:10:50;;;;;;;104.12;39.67;;;;;;;-15.71;49.72;101459.18;1730699;82;21265;-60
2021/01/20 04:13:57;;;;;;;88.78;36.17;;;;;;;-15.67;49.61;101470.16;1730929;82;21363;-61
2021/01/20 04:17:03;;;;;;;78.10;34.50;;;;;;;-15.67;49.47;101466.64;1731186;82;21808;-61
2021/01/20 04:20:12;;;;;;;91.50;37.40;;;;;;;-15.77;49.51;101462.66;1736854;81;21371;-60
2021/01/20 04:23:17;;;;;;;92.90;37.13;;;;;;;-15.80;49.49;101472.23;1715810;83;21340;-60
2021/01/20 04:26:24;;;;;;;240.22;76.50;;;;;;;-15.84;49.47;101474.39;1731051;82;21434;-61
2021/01/20 04:29:29;;;;;;;219.62;71.02;;;;;;;-15.93;49.45;101477.80;1730825;82;21387;-60
2021/01/20 04:32:34;;;;;;;281.25;86.02;;;;;;;-15.89;49.82;101478.71;1731025;82;21919;-60
2021/01/20 04:35:41;;;;;;;290.30;96.00;;;;;;;-15.77;49.84;101486.25;1730875;82;21418;-60
2021/01/20 04:38:47;;;;;;;241.08;86.65;;;;;;;-15.64;49.77;101499.03;1730871;82;21237;-60
2021/01/20 04:41:54;;;;;;;112.32;43.48;;;;;;;-15.59;49.49;101496.44;1730763;82;21383;-61
2021/01/20 04:45:02;;;;;;;85.70;36.35;;;;;;;-15.59;49.20;101488.57;1730687;82;21229;-62
2021/01/20 04:48:10;;;;;;;110.97;40.45;;;;;;;-15.66;48.81;101499.90;1753508;82;21224;-60
2021/01/20 04:51:17;;;;;;;101.55;37.55;;;;;;;-15.76;48.87;101514.22;1754046;80;21405;-61
2021/01/20 04:54:23;;;;;;;103.10;38.02;;;;;;;-15.78;48.96;101513.77;1753500;82;21367;-62
2021/01/20 04:57:28;;;;;;;111.75;41.37;;;;;;;-15.77;48.88;101510.27;1754025;81;21295;-60
2021/01/20 05:00:35;;;;;;;111.52;40.73;;;;;;;-15.77;48.78;101513.78;1753695;82;21243;-62
2021/01/20 05:03:40;;;;;;;120.70;42.33;;;;;;;-15.79;48.68;101519.44;1754182;81;21590;-61
2021/01/20 05:06:45;;;;;;;116.47;42.67;;;;;;;-15.79;48.57;101526.45;1753544;82;21386;-61
2021/01/20 05:09:52;;;;;;;176.05;57.98;;;;;;;-15.84;48.44;101530.77;1753931;81;21295;-62
2021/01/20 05:12:58;;;;;;;130.70;48.68;;;;;;;-15.93;48.30;101528.92;1753600;82;21207;-62
2021/01/20 05:16:05;;;;;;;125.00;43.48;;;;;;;-16.01;48.29;101523.14;1754521;81;21319;-60
2021/01/20 05:19:10;;;;;;;102.82;37.73;;;;;;;-16.07;48.39;101527.91;1753754;81;21767;-61
2021/01/20 05:22:18;;;;;;;105.55;40.23;;;;;;;-16.10;48.47;101526.98;1753914;82;21208;-61
2021/01/20 05:25:26;;;;;;;107.20;39.83;;;;;;;-16.09;48.53;101544.49;1752120;81;21267;-61
2021/01/20 05:28:36;;;;;;;120.10;46.48;;;;;;;-16.19;48.53;101543.94;1713565;82;21208;-61
2021/01/20 05:31:41;;;;;;;115.22;46.92;;;;;;;-16.18;48.70;101540.02;1753647;82;21732;-60
2021/01/20 05:34:48;;;;;;;133.57;47.73;;;;;;;-16.26;48.32;101539.47;1747832;82;21338;-60
2021/01/20 05:37:55;;;;;;;110.22;41.28;;;;;;;-16.41;48.58;101534.07;1736446;82;21325;-60
2021/01/20 05:41:01;;;;;;;88.20;34.75;;;;;;;-16.42;48.71;101531.87;1734183;82;21240;-60
2021/01/20 05:44:20;;;;;;;88.50;36.05;;;;;;;-16.43;48.85;101529.23;1723378;83;21239;-61
2021/01/20 05:47:26;;;;;;;100.42;41.00;;;;;;;-16.39;48.90;101536.29;1721726;81;21256;-61
2021/01/20 05:50:32;;;;;;;102.00;42.05;;;;;;;-16.50;48.75;101533.97;1714084;83;21374;-61
2021/01/20 05:53:37;;;;;;;95.07;41.05;;;;;;;-16.52;48.96;101539.64;1714472;83;21366;-61
2021/01/20 05:56:42;;;;;;;125.58;48.95;;;;;;;-16.61;48.95;101540.81;1715199;82;21410;-61
2021/01/20 05:59:53;;;;;;;115.85;46.70;;;;;;;-16.62;49.21;101550.86;1726513;80;21236;-60
2021/01/20 06:02:57;;;;;;;106.92;41.75;;;;;;;-16.55;49.34;101542.23;1702668;82;21248;-64
2021/01/20 06:06:03;;;;;;;117.95;47.93;;;;;;;-16.42;49.49;101541.46;1713153;83;21231;-65
2021/01/20 06:09:11;;;;;;;142.00;54.90;;;;;;;-16.24;49.49;101541.27;1713422;83;21224;-65
2021/01/20 06:12:19;;;;;;;156.07;58.73;;;;;;;-16.06;49.69;101544.07;1713130;82;21209;-64
2021/01/20 06:15:25;;;;;;;196.60;66.95;;;;;;;-15.99;49.69;101556.39;1713683;83;21760;-64
2021/01/20 06:18:35;;;;;;;190.92;64.10;;;;;;;-15.95;49.72;101556.86;1724477;82;21342;-64
2021/01/20 06:21:49;;;;;;;154.70;58.23;;;;;;;-15.89;49.67;101562.61;1741794;81;21228;-65
2021/01/20 06:25:18;;;;;;;129.10;52.05;;;;;;;-15.85;49.72;101563.08;1724442;82;21259;-64
2021/01/20 06:28:23;;;;;;;104.32;42.33;;;;;;;-15.67;50.05;101558.44;1743398;82;21856;-64
2021/01/20 06:31:34;;;;;;;119.25;44.23;;;;;;;-15.47;50.14;101564.77;1743211;82;21405;-64
2021/01/20 06:34:43;;;;;;;94.80;40.50;;;;;;;-15.38;49.76;101564.41;1743515;81;21382;-65
2021/01/20 06:37:54;;;;;;;110.97;43.35;;;;;;;-15.46;49.63;101570.45;1741120;81;21792;-63
2021/01/20 06:40:59;;;;;;;141.40;52.50;;;;;;;-15.43;50.02;101577.92;1732751;82;21910;-62
2021/01/20 06:44:18;;;;;;;158.70;58.98;;;;;;;-15.31;50.02;101581.91;1741816;82;21283;-62
2021/01/20 06:47:24;;;;;;;137.97;53.83;;;;;;;-15.17;50.05;101581.59;1731311;80;21462;-63
2021/01/20 06:50:30;;;;;;;135.57;56.92;;;;;;;-15.08;49.90;101585.63;1729844;81;21256;-61
2021/01/20 06:53:36;;;;;;;161.25;73.17;;;;;;;-15.02;49.77;101585.66;1729611;82;21213;-65
2021/01/20 06:56:56;;;;;;;156.65;62.98;;;;;;;-14.90;49.75;101584.42;1729248;82;21221;-64
2021/01/20 07:00:21;;;;;;;117.53;54.73;;;;;;;-14.72;49.80;101589.80;1728995;82;21232;-64
2021/01/20 07:03:24;;;;;;;192.47;73.20;;;;;;;-14.56;49.51;101583.77;1729544;82;21318;-63
2021/01/20 07:06:50;;;;;;;187.22;87.53;;;;;;;-14.43;49.23;101592.14;1727476;82;21208;-64
2021/01/20 07:10:07;;;;;;;172.62;80.45;;;;;;;-14.39;49.06;101590.41;1700644;83;21939;-63
2021/01/20 07:13:21;;;;;;;153.60;57.45;;;;;;;-14.26;49.45;101597.07;1700732;83;21318;-60
2021/01/20 07:16:27;;;;;;;139.00;57.60;;;;;;;-14.12;49.40;101601.02;1718887;83;21371;-66
2021/01/20 07:19:37;;;;;;;100.07;41.35;;;;;;;-14.04;49.60;101603.67;1708850;82;21268;-65
2021/01/20 07:22:43;;;;;;;114.62;49.33;;;;;;;-13.94;49.77;101604.16;1700157;84;21657;-64
2021/01/20 07:25:48;;;;;;;115.08;47.38;;;;;;;-13.98;49.81;101610.30;1687008;81;21237;-66
2021/01/20 07:28:53;;;;;;;87.37;38.30;;;;;;;-13.95;50.24;101613.80;1742461;81;21224;-65
2021/01/20 07:31:59;;;;;;;88.47;37.13;;;;;;;-13.91;50.67;101607.69;1723491;81;21240;-65
2021/01/20 07:35:05;;;;;;;89.55;36.15;;;;;;;-13.81;51.06;101605.54;1700716;84;21375;-64
2021/01/20 07:38:13;;;;;;;72.03;31.25;;;;;;;-13.57;51.58;101603.40;1701463;84;21411;-65
2021/01/20 07:41:31;;;;;;;89.70;39.40;;;;;;;-13.27;51.72;101603.44;1701196;84;22225;-65
2021/01/20 07:44:36;;;;;;;87.17;37.08;;;;;;;-13.07;51.63;101600.37;1708927;81;21215;-62
2021/01/20 07:47:54;;;;;;;88.03;38.08;;;;;;;-12.85;51.59;101608.67;1716747;81;21602;-61
2021/01/20 07:51:01;;;;;;;72.42;34.50;;;;;;;-12.69;51.26;101612.62;1732956;80;21292;-61
2021/01/20 07:54:10;;;;;;;67.80;31.52;;;;;;;-12.67;51.02;101616.56;1702940;84;21713;-61
2021/01/20 07:57:16;;;;;;;68.85;30.65;;;;;;;-12.65;51.13;101618.73;1703215;84;21267;-62
2021/01/20 08:00:22;;;;;;;78.20;34.75;;;;;;;-12.54;51.37;101623.59;1713799;83;21268;-62
2021/01/20 08:03:43;;;;;;;97.22;40.60;;;;;;;-12.37;51.26;101624.42;1717282;82;21284;-62
2021/01/20 08:06:51;;;;;;;98.12;43.80;;;;;;;-12.22;51.09;101627.00;1702286;84;21757;-59
2021/01/20 08:09:56;;;;;;;86.40;38.75;;;;;;;-12.11;51.06;101629.16;1740412;81;21253;-61
2021/01/20 08:13:02;;;;;;;115.15;43.70;;;;;;;-11.92;51.06;101622.94;1737405;81;21711;-60
2021/01/20 08:16:07;;;;;;;119.45;48.28;;;;;;;-11.76;50.83;101632.55;1710450;82;21212;-61
2021/01/20 08:19:13;;;;;;;85.40;36.60;;;;;;;-11.67;50.59;101629.00;1724006;81;21207;-60
2021/01/20 08:22:25;;;;;;;58.07;27.60;;;;;;;-11.59;50.68;101625.38;1752722;81;22209;-60
2021/01/20 08:25:30;;;;;;;61.73;30.17;;;;;;;-11.44;50.65;101629.27;1745366;81;21418;-59
2021/01/20 08:28:35;;;;;;;62.48;28.52;;;;;;;-11.37;50.63;101627.01;1715811;83;21309;-60
2021/01/20 08:31:42;;;;;;;86.95;37.90;;;;;;;-11.39;50.67;101626.16;1714723;83;21224;-59
2021/01/20 08:34:51;;;;;;;65.60;32.83;;;;;;;-11.34;50.86;101625.70;1707440;83;22169;-60
2021/01/20 08:37:59;;;;;;;50.45;24.15;;;;;;;-11.21;51.00;101626.02;1704864;83;21217;-57
2021/01/20 08:41:19;;;;;;;53.87;27.58;;;;;;;-11.08;50.92;101626.37;1702340;84;21225;-59
2021/01/20 08:44:24;;;;;;;59.08;28.07;;;;;;;-11.05;50.89;101630.31;1707898;83;21758;-58
2021/01/20 08:47:30;;;;;;;53.30;27.13;;;;;;;-10.92;51.00;101629.78;1716884;83;21197;-59
2021/01/20 08:50:54;;;;;;;60.33;29.60;;;;;;;-10.77;50.86;101634.95;1710813;80;21255;-58
2021/01/20 08:54:00;;;;;;;53.30;25.80;;;;;;;-10.69;50.83;101626.52;1718399;82;21252;-59
2021/01/20 08:57:28;;;;;;;61.35;26.95;;;;;;;-10.59;50.67;101624.66;1716807;82;21935;-57
2021/01/20 09:00:48;;;;;;;64.50;28.25;;;;;;;-10.49;50.63;101626.30;1732835;80;21244;-58
2021/01/20 09:04:10;;;;;;;55.35;28.07;;;;;;;-10.34;50.48;101632.78;1712633;83;21196;-59
2021/01/20 09:07:15;;;;;;;57.58;27.55;;;;;;;-10.32;50.25;101629.22;1713312;83;21346;-59
2021/01/20 09:10:20;;;;;;;78.30;37.30;;;;;;;-10.22;50.38;101626.03;1713225;83;21381;-62
2021/01/20 09:13:26;;;;;;;76.17;35.55;;;;;;;-10.11;50.20;101636.94;1712835;83;21355;-65
2021/01/20 09:16:38;;;;;;;67.58;33.40;;;;;;;-10.04;50.19;101629.78;1740203;80;21394;-65
2021/01/20 09:19:43;;;;;;;66.22;33.50;;;;;;;-9.95;50.07;101630.98;1757570;80;22065;-68
2021/01/20 09:22:49;;;;;;;73.00;36.38;;;;;;;-9.85;50.16;101627.34;1764622;80;21236;-65
2021/01/20 09:25:54;;;;;;;65.50;33.35;;;;;;;-9.67;50.06;101612.56;1752452;80;21203;-67
2021/01/20 09:29:00;;;;;;;67.45;30.80;;;;;;;-9.49;49.89;101618.91;1752827;80;21362;-65
2021/01/20 09:32:06;;;;;;;64.20;29.37;;;;;;;-9.39;49.81;101630.68;1770138;80;21197;-65
2021/01/20 09:35:17;;;;;;;54.40;29.23;;;;;;;-9.26;49.75;101634.06;1754256;79;21340;-66
2021/01/20 09:38:22;;;;;;;59.93;29.72;;;;;;;-9.19;49.52;101614.94;1743501;82;21221;-65
2021/01/20 09:41:27;;;;;;;59.48;28.42;;;;;;;-9.01;49.54;101626.16;1734917;80;21266;-66
2021/01/20 09:44:33;;;;;;;60.10;28.30;;;;;;;-8.87;49.29;101625.50;1726155;80;21374;-66
2021/01/20 09:47:40;;;;;;;62.75;30.68;;;;;;;-8.90;49.04;101625.55;1728353;80;21220;-65
2021/01/20 09:50:45;;;;;;;61.33;30.95;;;;;;;-8.92;49.19;101627.34;1743463;80;21854;-64
2021/01/20 09:53:50;;;;;;;57.03;29.35;;;;;;;-8.78;49.44;101623.16;1715110;81;21402;-64
2021/01/20 09:56:57;;;;;;;62.62;30.30;;;;;;;-8.69;49.42;101595.13;1700334;84;22001;-63
2021/01/20 10:00:02;;;;;;;63.52;30.48;;;;;;;-8.54;49.44;101622.27;1699494;84;21217;-63
2021/01/20 10:03:10;;;;;;;56.95;27.27;;;;;;;-8.43;49.37;101622.96;1724899;81;21263;-64
2021/01/20 10:06:15;;;;;;;61.88;29.18;;;;;;;-8.36;48.97;101621.08;1726639;82;21781;-64
2021/01/20 10:09:20;;;;;;;61.18;30.17;;;;;;;-8.36;49.01;101627.27;1713444;83;21929;-63
2021/01/20 10:12:27;;;;;;;61.13;29.00;;;;;;;-8.27;49.02;101627.53;1707179;83;21185;-63
2021/01/20 10:15:34;;;;;;;58.28;28.75;;;;;;;-8.19;48.95;101619.83;1730564;81;21753;-64
2021/01/20 10:18:39;;;;;;;60.70;29.77;;;;;;;-8.21;48.67;101618.09;1704400;82;21232;-64
2021/01/20 10:21:44;;;;;;;61.73;29.40;;;;;;;-8.28;48.57;101625.36;1714164;82;21364;-63
2021/01/20 10:24:50;;;;;;;60.67;30.15;;;;;;;-8.27;48.69;101627.09;1714670;82;21237;-63
2021/01/20 10:27:59;;;;;;;56.85;28.75;;;;;;;-8.16;48.78;101615.78;1714306;82;21220;-65
2021/01/20 10:31:05;;;;;;;58.45;28.52;;;;;;;-8.02;48.48;101614.17;1718427;81;21284;-64
2021/01/20 10:34:13;;;;;;;64.97;30.57;;;;;;;-7.98;48.27;101615.44;1729564;82;21355;-65
2021/01/20 10:37:17;;;;;;;63.87;31.80;;;;;;;-7.95;48.20;101611.39;1729878;82;21363;-63
2021/01/20 10:40:23;;;;;;;53.52;27.48;;;;;;;-7.87;48.17;101608.58;1728674;82;21741;-64
2021/01/20 10:43:28;;;;;;;62.78;29.80;;;;;;;-7.78;48.09;101605.72;1729615;82;21229;-62
2021/01/20 10:46:33;;;;;;;59.25;29.48;;;;;;;-7.75;47.97;101614.51;1717295;82;21232;-62
2021/01/20 10:49:39;;;;;;;55.63;28.92;;;;;;;-7.61;48.03;101610.70;1711899;84;21366;-59
2021/01/20 10:52:45;;;;;;;67.12;33.15;;;;;;;-7.51;47.63;101607.80;1717887;82;21241;-60
2021/01/20 10:55:52;;;;;;;62.45;30.68;;;;;;;-7.51;47.52;101605.58;1724859;83;21528;-58
2021/01/20 10:58:58;;;;;;;59.67;29.50;;;;;;;-7.54;47.45;101600.34;1709756;83;21881;-61
2021/01/20 11:02:06;;;;;;;54.60;29.12;;;;;;;-7.55;47.58;101594.61;1726160;82;21229;-63
2021/01/20 11:05:12;;;;;;;52.75;27.87;;;;;;;-7.55;47.35;101603.47;1726078;83;21406;-65
2021/01/20 11:08:19;;;;;;;59.73;29.50;;;;;;;-7.58;47.60;101598.67;1728127;82;21816;-62
2021/01/20 11:11:25;;;;;;;52.70;28.35;;;;;;;-7.52;47.61;101601.19;1726307;82;21209;-62
2021/01/20 11:14:32;;;;;;;62.35;32.03;;;;;;;-7.47;47.56;101608.61;1726404;82;21236;-63
2021/01/20 11:17:38;;;;;;;63.20;29.37;;;;;;;-7.43;47.49;101600.98;1721649;82;21232;-62
2021/01/20 11:20:46;;;;;;;59.38;30.45;;;;;;;-7.36;47.47;101598.17;1701235;84;21380;-60
2021/01/20 11:23:51;;;;;;;66.90;31.75;;;;;;;-7.30;47.46;101601.12;1701429;84;21250;-62
2021/01/20 11:26:58;;;;;;;63.23;31.68;;;;;;;-7.29;47.34;101609.07;1700620;84;21428;-62
2021/01/20 11:30:05;;;;;;;59.90;30.85;;;;;;;-7.23;47.26;101600.09;1702527;83;21232;-62
2021/01/20 11:33:10;;;;;;;53.48;27.50;;;;;;;-7.18;47.40;101603.53;1703613;83;21939;-62
2021/01/20 11:36:16;;;;;;;59.58;30.68;;;;;;;-7.12;47.16;101601.58;1727014;82;21785;-62
2021/01/20 11:39:26;;;;;;;64.32;33.48;;;;;;;-7.12;46.76;101599.39;1716363;83;21484;-62
2021/01/20 11:42:30;;;;;;;61.90;31.48;;;;;;;-7.25;46.85;101604.56;1694481;82;21792;-62
2021/01/20 11:45:38;;;;;;;69.35;37.40;;;;;;;-7.26;46.83;101594.37;1727354;82;21939;-61
2021/01/20 11:48:43;;;;;;;70.50;33.40;;;;;;;-7.23;47.04;101589.45;1723875;82;21442;-61
2021/01/20 11:51:49;;;;;;;70.47;34.20;;;;;;;-7.13;46.98;101590.97;1723541;83;21289;-60
2021/01/20 11:54:57;;;;;;;61.15;32.03;;;;;;;-7.04;46.91;101590.30;1731851;80;21342;-61
2021/01/20 11:58:02;;;;;;;57.00;29.15;;;;;;;-6.97;46.67;101581.72;1732380;82;21280;-62
2021/01/20 12:01:09;;;;;;;62.70;32.45;;;;;;;-7.01;46.59;101585.38;1732613;82;21217;-60
2021/01/20 12:04:16;;;;;;;67.47;33.30;;;;;;;-7.17;46.48;101599.95;1732696;82;21225;-61
2021/01/20 12:07:21;;;;;;;70.35;34.03;;;;;;;-7.16;46.94;101596.36;1730629;82;21247;-61
2021/01/20 12:10:28;;;;;;;67.82;33.45;;;;;;;-6.99;46.97;101591.55;1729159;80;21746;-62
2021/01/20 12:13:34;;;;;;;63.28;32.40;;;;;;;-6.93;46.83;101590.06;1727495;82;21347;-61
2021/01/20 12:16:40;;;;;;;65.22;32.48;;;;;;;-6.96;46.65;101588.81;1741345;82;21270;-61
2021/01/20 12:19:45;;;;;;;62.15;30.02;;;;;;;-7.03;46.82;101587.19;1710842;83;21344;-62
2021/01/20 12:22:50;;;;;;;52.20;26.27;;;;;;;-7.06;46.83;101595.25;1725761;82;21698;-62
2021/01/20 12:25:56;;;;;;;58.68;29.50;;;;;;;-7.13;46.89;101598.95;1765851;81;21629;-61
2021/01/20 12:29:01;;;;;;;59.50;33.00;;;;;;;-7.20;47.01;101602.23;1731901;83;21177;-61
2021/01/20 12:32:07;;;;;;;61.45;31.35;;;;;;;-7.10;47.12;101610.88;1732144;82;21181;-61
2021/01/20 12:35:14;;;;;;;60.12;30.90;;;;;;;-6.95;47.15;101609.17;1701249;84;21260;-62
2021/01/20 12:38:23;;;;;;;67.42;31.23;;;;;;;-6.93;46.87;101621.99;1699662;84;21201;-60
2021/01/20 12:41:28;;;;;;;59.38;29.92;;;;;;;-6.90;46.85;101624.58;1728445;83;21196;-61
2021/01/20 12:44:33;;;;;;;58.40;29.85;;;;;;;-6.82;46.93;101623.94;1724307;82;21812;-61
2021/01/20 12:47:39;;;;;;;50.83;27.05;;;;;;;-6.79;46.75;101618.09;1720554;83;21282;-61
2021/01/20 12:50:46;;;;;;;61.80;29.20;;;;;;;-6.88;46.56;101618.30;1719250;83;21752;-61
2021/01/20 12:53:51;;;;;;;60.17;30.27;;;;;;;-6.98;46.55;101626.09;1726124;83;21807;-60
2021/01/20 12:56:57;;;;;;;54.58;28.30;;;;;;;-7.03;46.59;101624.44;1705304;81;21236;-60
2021/01/20 13:00:04;;;;;;;60.10;31.90;;;;;;;-7.17;46.46;101615.91;1702982;83;21217;-61
2021/01/20 13:03:09;;;;;;;84.22;43.38;;;;;;;-7.18;46.99;101618.16;1708256;82;21209;-61
2021/01/20 13:06:15;;;;;;;66.12;33.70;;;;;;;-6.98;47.20;101615.90;1704695;83;21216;-60
2021/01/20 13:09:22;;;;;;;68.28;31.70;;;;;;;-6.79;47.03;101623.42;1745574;81;21271;-63
2021/01/20 13:12:26;;;;;;;67.10;33.65;;;;;;;-6.76;46.60;101618.46;1724645;82;21248;-62
2021/01/20 13:15:33;;;;;;;79.25;37.08;;;;;;;-6.78;46.50;101622.94;1723716;83;21804;-61
2021/01/20 13:18:38;;;;;;;70.57;34.35;;;;;;;-6.73;46.60;101627.25;1701797;84;21749;-61
2021/01/20 13:21:43;;;;;;;67.20;34.15;;;;;;;-6.60;46.78;101627.38;1726597;83;21189;-62
2021/01/20 13:24:49;;;;;;;75.30;38.33;;;;;;;-6.46;46.48;101616.36;1731479;82;21202;-63
2021/01/20 13:27:54;;;;;;;90.17;41.80;;;;;;;-6.49;46.06;101620.44;1732152;82;21343;-62
2021/01/20 13:30:59;;;;;;;77.67;40.23;;;;;;;-6.59;46.11;101617.58;1732603;82;21233;-62
2021/01/20 13:34:05;;;;;;;86.05;42.48;;;;;;;-6.60;46.15;101626.05;1732640;82;21226;-62
2021/01/20 13:37:10;;;;;;;89.70;44.25;;;;;;;-6.63;46.09;101634.08;1707552;83;21266;-62
2021/01/20 13:40:16;;;;;;;89.70;46.08;;;;;;;-6.68;46.00;101632.02;1703329;84;21240;-63
2021/01/20 13:43:22;;;;;;;91.20;45.20;;;;;;;-6.74;46.00;101635.28;1703199;83;21439;-61
2021/01/20 13:46:27;;;;;;;76.67;38.98;;;;;;;-6.92;46.02;101638.37;1716647;83;21219;-62
2021/01/20 13:49:32;;;;;;;85.03;43.73;;;;;;;-7.12;46.35;101632.64;1703530;84;21268;-60
2021/01/20 13:52:39;;;;;;;81.82;39.10;;;;;;;-7.20;46.56;101642.13;1703361;84;21213;-60
2021/01/20 13:55:44;;;;;;;81.60;40.67;;;;;;;-7.31;46.79;101641.50;1703232;84;21197;-62
2021/01/20 13:58:55;;;;;;;81.20;39.15;;;;;;;-7.42;46.93;101641.30;1703570;84;21283;-60
2021/01/20 14:01:58;;;;;;;81.85;41.80;;;;;;;-7.52;47.04;101637.96;1706497;84;21232;-61
2021/01/20 14:05:04;;;;;;;75.83;40.15;;;;;;;-7.63;47.19;101635.09;1706971;83;21228;-62